Time;durP1;ratioP1;P1;durP2;ratioP2;P2;SDS_P1;SDS_P2;PMS_P1;PMS_P2;Temp;Humidity;BMP_temperature;BMP_pressure;BME280_temperature;BME280_humidity;BME280_pressure;Samples;Min_cycle;Max_cycle;Signal;HPM_P1;HPM_P2
2022/07/16 00:04:02;;;;;;;2.27;1.87;;;;;;;12.18;74.30;98041.72;6210425;28;20581;-47
2022/07/16 00:07:04;;;;;;;2.87;1.93;;;;;;;12.13;74.02;98036.81;6231805;28;20656;-44
2022/07/16 00:10:07;;;;;;;4.73;2.23;;;;;;;12.12;74.10;98031.63;6231107;28;20642;-43
2022/07/16 00:13:09;;;;;;;2.97;2.47;;;;;;;12.09;74.66;98034.50;6236341;28;20595;-43
2022/07/16 00:16:12;;;;;;;2.03;1.83;;;;;;;12.00;75.08;98029.97;6232508;28;20228;-44
2022/07/16 00:19:18;;;;;;;3.47;2.00;;;;;;;11.90;74.88;98029.03;6231764;28;20722;-44
2022/07/16 00:22:20;;;;;;;3.33;2.00;;;;;;;11.88;75.27;98036.25;6232071;28;20231;-44
2022/07/16 00:25:22;;;;;;;4.17;1.93;;;;;;;11.92;75.42;98027.94;6230916;28;20250;-44
2022/07/16 00:28:24;;;;;;;2.67;2.03;;;;;;;12.01;74.97;98034.31;6232507;28;20747;-44
2022/07/16 00:31:27;;;;;;;12.80;10.53;;;;;;;12.03;74.56;98029.72;6224250;28;20740;-43
2022/07/16 00:34:29;;;;;;;6.53;4.63;;;;;;;12.01;74.71;98034.31;6231356;28;20709;-44
2022/07/16 00:37:31;;;;;;;20.70;14.47;;;;;;;11.94;75.00;98036.59;6230217;28;20318;-45
2022/07/16 00:40:33;;;;;;;19.13;14.87;;;;;;;11.84;75.44;98038.31;6220253;28;20768;-46
2022/07/16 00:43:52;;;;;;;6.90;6.20;;;;;;;11.83;75.96;98037.47;6231536;28;20242;-45
2022/07/16 00:46:54;;;;;;;8.93;6.10;;;;;;;11.83;76.04;98041.91;6229662;28;20827;-45
2022/07/16 00:49:57;;;;;;;4.87;4.03;;;;;;;11.81;75.68;98041.19;6231092;28;20241;-46
2022/07/16 00:53:01;;;;;;;5.67;3.87;;;;;;;11.73;75.58;98039.13;6231690;28;20234;-44
2022/07/16 00:56:09;;;;;;;4.53;3.87;;;;;;;11.64;75.37;98024.00;6231492;28;20239;-44
2022/07/16 00:59:12;;;;;;;5.13;3.40;;;;;;;11.58;76.04;98037.66;6230047;28;20319;-45
2022/07/16 01:02:14;;;;;;;3.23;2.93;;;;;;;11.53;76.44;98031.06;6230250;28;20240;-43
2022/07/16 01:05:18;;;;;;;3.33;1.97;;;;;;;11.52;76.33;98027.59;6230887;28;20246;-45
2022/07/16 01:08:20;;;;;;;2.43;2.10;;;;;;;11.53;76.26;98034.56;6230548;28;20222;-43
2022/07/16 01:11:22;;;;;;;2.80;2.37;;;;;;;11.48;76.57;98034.91;6213782;28;20234;-43
2022/07/16 01:14:24;;;;;;;3.87;2.70;;;;;;;11.44;77.09;98036.13;6232074;28;20235;-43
2022/07/16 01:17:27;;;;;;;3.40;2.23;;;;;;;11.40;77.33;98036.47;6229918;28;20239;-44
2022/07/16 01:20:29;;;;;;;2.13;1.93;;;;;;;11.41;77.34;98030.22;6230636;28;20311;-46
2022/07/16 01:23:31;;;;;;;2.20;2.00;;;;;;;11.40;77.07;98023.25;6230383;28;20234;-45
2022/07/16 01:26:33;;;;;;;2.63;2.17;;;;;;;11.38;77.07;98020.72;6229078;28;20724;-44
2022/07/16 01:29:35;;;;;;;3.30;2.10;;;;;;;11.39;77.20;98021.56;6226243;28;20229;-45
2022/07/16 01:32:38;;;;;;;1.97;1.77;;;;;;;11.43;77.00;98015.94;6211382;28;20219;-45
2022/07/16 01:35:40;;;;;;;2.20;1.97;;;;;;;11.40;76.96;98012.69;6231286;28;20253;-43
2022/07/16 01:38:45;;;;;;;4.20;2.23;;;;;;;11.39;76.76;98003.91;6228540;28;20240;-43
2022/07/16 01:41:52;;;;;;;2.60;2.40;;;;;;;11.40;77.02;98002.13;6207984;28;20614;-44
2022/07/16 01:44:54;;;;;;;2.20;2.00;;;;;;;11.39;77.15;98003.91;6225845;28;20242;-44
2022/07/16 01:47:57;;;;;;;3.67;2.17;;;;;;;11.38;77.36;98004.03;6229589;28;20237;-43
2022/07/16 01:51:00;;;;;;;4.63;2.13;;;;;;;11.38;77.32;98004.88;6232546;28;20573;-44
2022/07/16 01:54:02;;;;;;;5.13;2.10;;;;;;;11.35;76.86;98009.59;6231484;28;20710;-43
2022/07/16 01:57:04;;;;;;;2.63;2.20;;;;;;;11.30;77.13;98014.38;6233227;28;20212;-44
2022/07/16 02:00:07;;;;;;;2.90;2.10;;;;;;;11.21;77.72;98008.00;6235286;28;20199;-43
2022/07/16 02:03:14;;;;;;;3.07;2.20;;;;;;;11.21;77.45;98008.00;6228401;28;20247;-44
2022/07/16 02:06:16;;;;;;;2.73;2.10;;;;;;;11.19;77.97;98002.00;6229033;28;20779;-46
2022/07/16 02:09:19;;;;;;;1.87;1.77;;;;;;;11.19;77.64;98006.44;6226535;28;20712;-45
2022/07/16 02:12:21;;;;;;;2.37;2.17;;;;;;;11.17;77.95;97997.81;6224348;28;20241;-44
2022/07/16 02:15:23;;;;;;;4.33;2.33;;;;;;;11.10;78.53;97998.25;6227583;28;20222;-45
2022/07/16 02:18:25;;;;;;;3.40;2.17;;;;;;;11.04;78.08;98001.38;6185394;22;20228;-87
2022/07/16 02:21:27;;;;;;;2.40;1.97;;;;;;;10.97;78.33;98005.47;6139977;28;20234;-88
2022/07/16 02:24:29;;;;;;;3.47;2.13;;;;;;;11.01;78.14;98008.69;6156484;28;20366;-87
2022/07/16 02:27:32;;;;;;;3.20;2.10;;;;;;;11.01;78.23;97991.06;6139570;28;20228;-87
2022/07/16 02:30:39;;;;;;;2.77;2.27;;;;;;;10.98;78.47;97988.63;6150281;28;20220;-87
2022/07/16 02:33:41;;;;;;;3.57;2.13;;;;;;;10.93;78.50;97996.09;6148057;28;20620;-87
2022/07/16 02:36:43;;;;;;;2.50;2.30;;;;;;;10.89;78.65;97993.78;6151930;28;20732;-87
2022/07/16 02:39:46;;;;;;;4.17;2.37;;;;;;;10.82;78.89;97997.88;6139274;28;20291;-87
2022/07/16 02:42:48;;;;;;;3.97;2.40;;;;;;;10.75;79.19;97999.28;6155515;28;20258;-87
2022/07/16 02:45:50;;;;;;;3.03;2.33;;;;;;;10.70;78.89;98000.47;6138707;28;20240;-87
2022/07/16 02:48:52;;;;;;;3.50;3.03;;;;;;;10.71;79.37;97993.41;6156154;28;20621;-87
2022/07/16 02:51:54;;;;;;;3.27;2.80;;;;;;;10.70;79.37;98000.47;6170325;28;20318;-87
2022/07/16 02:54:55;;;;;;;3.13;2.40;;;;;;;10.63;79.35;97996.63;6139198;28;20315;-87
2022/07/16 02:57:57;;;;;;;5.53;3.70;;;;;;;10.62;79.74;97997.56;6139072;28;20235;-88
2022/07/16 03:01:00;;;;;;;4.27;2.63;;;;;;;10.61;79.73;97997.69;6154597;28;20326;-87
2022/07/16 03:04:02;;;;;;;3.60;2.80;;;;;;;10.59;79.76;97989.88;6155156;28;20232;-87
2022/07/16 03:07:04;;;;;;;4.13;3.00;;;;;;;10.58;79.67;97993.47;6171039;28;20718;-87
2022/07/16 03:10:08;;;;;;;3.03;2.23;;;;;;;10.59;79.74;97997.78;6154663;28;20334;-87
2022/07/16 03:13:10;;;;;;;2.83;2.53;;;;;;;10.55;79.54;97996.38;6146253;28;20327;-87
2022/07/16 03:16:12;;;;;;;3.10;2.50;;;;;;;10.54;79.95;97986.75;6152818;28;20235;-87
2022/07/16 03:19:14;;;;;;;2.30;2.10;;;;;;;10.56;79.65;97984.84;6156149;28;20250;-87
2022/07/16 03:22:17;;;;;;;3.10;2.47;;;;;;;10.54;80.26;97989.41;6138656;28;20242;-87
2022/07/16 03:25:19;;;;;;;2.80;2.60;;;;;;;10.54;80.06;97986.75;6170283;28;20598;-87
2022/07/16 03:28:21;;;;;;;4.97;2.53;;;;;;;10.55;80.06;97980.53;6153995;28;20299;-87
2022/07/16 03:31:23;;;;;;;5.30;2.70;;;;;;;10.54;80.19;97992.03;6155584;28;20244;-87
2022/07/16 03:34:25;;;;;;;6.03;2.60;;;;;;;10.54;80.29;97997.31;6154388;28;20230;-87
2022/07/16 03:37:27;;;;;;;2.90;2.30;;;;;;;10.53;80.29;97993.00;6138306;28;20231;-87
2022/07/16 03:40:29;;;;;;;2.70;2.50;;;;;;;10.55;80.93;97990.25;6139544;28;20312;-87
2022/07/16 03:43:31;;;;;;;2.93;2.60;;;;;;;10.57;80.78;97993.63;6152943;28;20448;-87
2022/07/16 03:46:35;;;;;;;2.73;2.20;;;;;;;10.60;80.21;97994.19;6138300;28;20246;-87
2022/07/16 03:49:37;;;;;;;3.07;2.60;;;;;;;10.58;80.37;97982.91;6130594;28;20291;-87
2022/07/16 03:52:39;;;;;;;2.67;2.47;;;;;;;10.64;80.91;97982.47;6136241;28;20231;-87
2022/07/16 03:55:41;;;;;;;2.83;2.30;;;;;;;10.70;80.67;97987.28;6154243;28;20655;-87
2022/07/16 03:58:43;;;;;;;3.57;2.73;;;;;;;10.73;80.41;97988.84;6146781;28;20237;-87
2022/07/16 04:02:03;;;;;;;3.30;2.83;;;;;;;10.77;80.62;97986.81;6145399;28;20314;-87
2022/07/16 04:05:06;;;;;;;3.30;3.00;;;;;;;10.77;80.40;97986.81;6157954;28;20246;-87
2022/07/16 04:08:08;;;;;;;3.40;2.77;;;;;;;10.79;80.63;97979.59;6159652;28;20224;-87
2022/07/16 04:11:11;;;;;;;2.80;2.60;;;;;;;10.84;80.51;97978.31;6158615;28;20226;-87
2022/07/16 04:14:13;;;;;;;4.27;2.47;;;;;;;10.85;80.26;97977.34;6157742;28;20325;-87
2022/07/16 04:17:15;;;;;;;3.07;2.77;;;;;;;10.84;80.01;97980.94;6141685;28;20325;-87
2022/07/16 04:20:18;;;;;;;3.73;2.73;;;;;;;10.86;80.09;97983.47;6157782;28;20307;-87
2022/07/16 04:23:20;;;;;;;2.60;2.40;;;;;;;10.88;79.94;97979.75;6141659;28;20785;-87
2022/07/16 04:26:21;;;;;;;2.60;2.40;;;;;;;10.94;79.36;97979.28;6158012;28;20225;-87
2022/07/16 04:29:24;;;;;;;2.73;2.53;;;;;;;10.99;79.78;97985.03;6163094;28;20243;-87
2022/07/16 04:32:26;;;;;;;3.73;2.60;;;;;;;10.98;79.75;97975.44;6165989;28;20234;-87
2022/07/16 04:35:28;;;;;;;2.80;2.60;;;;;;;11.00;79.99;97977.97;6142178;28;20604;-87
2022/07/16 04:38:30;;;;;;;4.13;2.40;;;;;;;11.05;79.72;97973.19;6144309;28;20235;-87
2022/07/16 04:41:32;;;;;;;2.90;2.60;;;;;;;11.02;79.95;97976.88;6158017;28;20304;-87
2022/07/16 04:44:34;;;;;;;2.63;2.10;;;;;;;11.09;79.84;97977.25;6141396;28;20327;-87
2022/07/16 04:47:37;;;;;;;3.03;2.73;;;;;;;11.19;79.72;97974.72;6148479;28;20339;-87
2022/07/16 04:50:39;;;;;;;3.60;2.57;;;;;;;11.26;79.60;97974.16;6132947;28;20229;-88
2022/07/16 04:53:41;;;;;;;2.53;2.30;;;;;;;11.29;79.56;97970.41;6163262;28;20234;-87
2022/07/16 04:56:43;;;;;;;3.57;2.50;;;;;;;11.34;79.43;97969.09;6156751;28;20719;-87
2022/07/16 04:59:45;;;;;;;2.73;2.53;;;;;;;11.42;79.04;97971.97;6157667;28;20227;-87
2022/07/16 05:02:56;;;;;;;3.50;2.40;;;;;;;11.50;79.11;97979.28;6172788;28;20300;-87
2022/07/16 05:05:59;;;;;;;4.33;2.20;;;;;;;11.54;78.94;97983.38;6140442;28;20399;-88
2022/07/16 05:09:02;;;;;;;3.30;2.70;;;;;;;11.56;79.30;97977.97;6156497;28;20299;-87
2022/07/16 05:12:04;;;;;;;2.93;2.50;;;;;;;11.59;79.37;97980.34;6140415;28;20241;-87
2022/07/16 05:15:07;;;;;;;2.63;2.43;;;;;;;11.67;79.22;97973.53;6157015;28;20235;-87
2022/07/16 05:18:09;;;;;;;2.90;2.57;;;;;;;11.75;79.44;97976.41;6148538;28;20255;-87
2022/07/16 05:21:12;;;;;;;3.00;2.30;;;;;;;11.83;79.41;97984.56;6148344;28;20228;-88
2022/07/16 05:24:21;;;;;;;2.83;2.63;;;;;;;11.95;79.19;97984.56;6141730;28;20718;-87
2022/07/16 05:27:23;;;;;;;2.80;2.60;;;;;;;12.02;79.57;97985.72;6156047;28;20240;-87
2022/07/16 05:30:25;;;;;;;2.60;2.40;;;;;;;12.11;79.44;97985.81;6163199;28;20344;-87
2022/07/16 05:33:28;;;;;;;3.20;2.90;;;;;;;12.20;79.46;97989.50;6156958;28;20233;-87
2022/07/16 05:36:30;;;;;;;2.70;2.50;;;;;;;12.26;79.55;97990.84;6156332;28;20232;-87
2022/07/16 05:39:31;;;;;;;2.37;2.20;;;;;;;12.38;79.10;97988.00;6140224;28;20832;-88
2022/07/16 05:42:34;;;;;;;2.27;2.17;;;;;;;12.43;79.39;97984.97;6155169;28;20791;-87
2022/07/16 05:45:36;;;;;;;2.73;2.53;;;;;;;12.55;79.09;97984.81;6148020;28;20701;-87
2022/07/16 05:48:38;;;;;;;3.00;2.70;;;;;;;12.65;79.11;97991.97;6121878;28;20242;-87
2022/07/16 05:51:40;;;;;;;4.87;2.23;;;;;;;12.72;79.28;97987.84;6159572;28;20288;-87
2022/07/16 05:54:42;;;;;;;2.77;2.50;;;;;;;12.81;79.13;97987.91;6140411;28;20309;-87
2022/07/16 05:57:44;;;;;;;3.73;2.67;;;;;;;12.93;78.87;97991.31;6139672;28;20222;-88
2022/07/16 06:00:47;;;;;;;2.60;2.40;;;;;;;13.08;78.88;97995.31;6139915;28;20324;-87
2022/07/16 06:03:49;;;;;;;3.93;2.67;;;;;;;13.24;78.66;97990.41;6172401;28;20237;-88
2022/07/16 06:06:51;;;;;;;2.50;2.30;;;;;;;13.43;78.33;97991.47;6139688;28;20239;-87
2022/07/16 06:09:53;;;;;;;2.53;2.27;;;;;;;13.55;78.15;97991.25;6154117;28;20771;-87
2022/07/16 06:12:57;;;;;;;2.73;2.47;;;;;;;13.74;78.17;97986.97;6148041;28;20351;-87
2022/07/16 06:16:01;;;;;;;2.60;2.40;;;;;;;13.97;77.06;97983.94;6135408;28;20765;-87
2022/07/16 06:19:03;;;;;;;3.90;2.53;;;;;;;14.18;76.58;97991.81;6138476;28;20657;-88
2022/07/16 06:22:05;;;;;;;2.97;2.40;;;;;;;14.40;76.29;97990.75;6139325;28;20316;-88
2022/07/16 06:25:07;;;;;;;2.40;2.20;;;;;;;14.55;76.26;97996.50;6154796;28;20324;-87
2022/07/16 06:28:09;;;;;;;4.77;2.20;;;;;;;14.70;75.47;97989.75;6139401;28;20706;-87
2022/07/16 06:31:12;;;;;;;3.50;2.40;;;;;;;14.83;74.90;97992.13;6173283;28;20232;-88
2022/07/16 06:34:14;;;;;;;2.97;2.63;;;;;;;15.05;73.94;97995.31;6160053;28;20380;-88
2022/07/16 06:37:16;;;;;;;2.37;2.00;;;;;;;15.18;73.68;97989.66;6139575;28;20292;-88
2022/07/16 06:40:18;;;;;;;4.40;2.30;;;;;;;15.40;73.14;97991.13;6155371;28;20233;-88
2022/07/16 06:43:20;;;;;;;3.20;1.90;;;;;;;15.78;70.79;97984.81;6132468;28;20337;-88
2022/07/16 06:46:22;;;;;;;3.27;2.00;;;;;;;16.12;64.04;97977.91;6120764;28;20259;-87
2022/07/16 06:49:24;;;;;;;2.10;1.80;;;;;;;16.75;62.63;97977.88;6155697;28;20757;-88
2022/07/16 06:52:26;;;;;;;1.93;1.73;;;;;;;17.26;59.35;97974.41;6140482;28;20468;-88
2022/07/16 06:55:28;;;;;;;1.80;1.70;;;;;;;17.73;58.26;97973.97;6153672;28;20716;-88
2022/07/16 06:58:30;;;;;;;4.37;1.80;;;;;;;18.18;56.25;97978.09;6147405;28;20694;-87
2022/07/16 07:01:33;;;;;;;4.03;2.00;;;;;;;18.40;55.55;97983.69;6163873;28;20344;-87
2022/07/16 07:04:35;;;;;;;2.27;1.70;;;;;;;18.71;52.91;97973.22;6155467;28;20241;-87
2022/07/16 07:07:37;;;;;;;2.40;1.60;;;;;;;19.11;52.25;97984.88;6155087;28;20316;-87
2022/07/16 07:10:39;;;;;;;2.70;1.73;;;;;;;19.45;50.17;97980.16;6155872;28;20230;-87
2022/07/16 07:13:41;;;;;;;2.03;1.80;;;;;;;19.88;49.47;97973.47;6154723;28;20228;-88
2022/07/16 07:16:43;;;;;;;2.50;1.80;;;;;;;20.10;46.59;97976.38;6154534;28;20784;-88
2022/07/16 07:19:45;;;;;;;1.70;1.60;;;;;;;20.02;48.37;97971.91;6138967;28;20249;-87
2022/07/16 07:22:47;;;;;;;2.50;1.60;;;;;;;20.23;48.31;97977.50;6138974;28;20261;-87
2022/07/16 07:25:49;;;;;;;2.00;1.80;;;;;;;20.52;46.73;97971.47;6175778;28;20238;-87
2022/07/16 07:28:51;;;;;;;3.13;1.60;;;;;;;20.89;45.86;97964.47;6156322;28;20392;-87
2022/07/16 07:31:53;;;;;;;1.57;1.43;;;;;;;21.37;45.58;97971.22;6166611;28;20705;-88
2022/07/16 07:34:55;;;;;;;1.87;1.50;;;;;;;21.80;45.10;97969.56;6153884;28;20245;-87
2022/07/16 07:37:58;;;;;;;2.07;1.60;;;;;;;22.20;44.82;97975.47;6158805;28;20226;-87
2022/07/16 07:41:01;;;;;;;2.40;1.63;;;;;;;22.52;42.94;97972.31;6142920;28;20321;-88
2022/07/16 07:44:03;;;;;;;2.33;1.70;;;;;;;22.87;42.37;97959.81;6158835;28;20226;-88
2022/07/16 07:47:05;;;;;;;2.20;1.70;;;;;;;23.09;42.04;97968.72;6143191;28;20237;-88
2022/07/16 07:50:09;;;;;;;1.53;1.30;;;;;;;23.47;42.01;97969.19;6158811;28;20229;-88
2022/07/16 07:53:11;;;;;;;1.80;1.70;;;;;;;23.71;40.94;97962.53;6142453;28;20234;-88
2022/07/16 07:56:13;;;;;;;3.00;1.90;;;;;;;23.85;38.95;97965.09;6142028;28;20714;-88
2022/07/16 07:59:15;;;;;;;2.23;1.53;;;;;;;24.05;38.98;97956.25;6159337;28;20652;-88
2022/07/16 08:02:17;;;;;;;4.90;1.93;;;;;;;24.51;38.90;97956.41;6143301;28;20229;-88
2022/07/16 08:05:19;;;;;;;2.47;1.70;;;;;;;24.94;39.79;97948.81;6158257;28;20222;-87
2022/07/16 08:08:21;;;;;;;1.93;1.60;;;;;;;25.24;38.80;97946.53;6133874;28;20230;-87
2022/07/16 08:11:23;;;;;;;2.87;1.60;;;;;;;25.45;39.26;97959.78;6157997;28;20767;-89
2022/07/16 08:14:26;;;;;;;1.63;1.43;;;;;;;25.68;38.25;97945.81;6151724;28;20716;-88
2022/07/16 08:17:29;;;;;;;2.30;1.60;;;;;;;26.11;37.62;97948.78;6168670;28;20250;-88
2022/07/16 08:20:31;;;;;;;1.90;1.70;;;;;;;26.44;36.54;97943.25;6158958;28;20234;-88
2022/07/16 08:26:54;;;;;;;3.17;2.13;;;;;;;26.54;36.21;97940.06;6149033;28;20309;-88
2022/07/16 08:29:56;;;;;;;3.33;2.40;;;;;;;25.96;37.56;97945.50;6166418;28;20225;-88
2022/07/16 08:32:58;;;;;;;2.30;2.05;;;;;;;25.78;38.61;97948.06;6184018;28;20233;-87
2022/07/16 08:36:01;;;;;;;1.77;1.63;;;;;;;26.34;37.90;97943.72;6163268;28;20253;-85
2022/07/16 08:39:03;;;;;;;2.55;1.70;;;;;;;26.17;38.42;97953.31;6161001;28;20732;-85
2022/07/16 08:42:07;;;;;;;2.38;2.03;;;;;;;26.76;35.80;97941.34;6176820;28;20217;-85
2022/07/16 08:45:11;;;;;;;1.65;1.55;;;;;;;27.38;36.30;97953.13;6163590;28;20288;-85
2022/07/16 08:48:14;;;;;;;1.75;1.60;;;;;;;27.07;35.75;97951.34;6144368;28;20296;-85
2022/07/16 08:51:22;;;;;;;2.00;1.80;;;;;;;26.58;36.22;97955.63;6145601;28;20737;-84
2022/07/16 08:54:27;;;;;;;1.65;1.52;;;;;;;26.98;36.73;97952.66;6159841;28;20600;-86
2022/07/16 08:57:30;;;;;;;1.98;1.80;;;;;;;27.21;37.72;97952.06;6158762;28;20229;-85
2022/07/16 09:00:32;;;;;;;1.98;1.73;;;;;;;27.38;36.58;97947.72;6157175;28;20718;-86
2022/07/16 09:03:34;;;;;;;2.05;1.80;;;;;;;27.79;35.62;97941.69;6158383;28;20271;-85
2022/07/16 09:06:37;;;;;;;2.65;2.10;;;;;;;27.92;33.52;97936.94;6157527;28;20863;-85
2022/07/16 09:09:40;;;;;;;2.67;2.00;;;;;;;28.12;32.62;97931.25;6140193;28;20225;-86
2022/07/16 09:12:46;;;;;;;3.50;1.88;;;;;;;28.28;33.87;97935.25;6149166;28;20222;-86
2022/07/16 09:15:48;;;;;;;2.08;1.65;;;;;;;28.73;32.89;97935.66;6148710;28;20341;-85
2022/07/16 09:19:06;;;;;;;2.53;1.88;;;;;;;28.69;31.44;97934.44;6171613;28;20265;-86
2022/07/16 09:22:11;;;;;;;2.10;1.75;;;;;;;28.42;33.88;97942.16;6141877;28;20234;-86
2022/07/16 09:25:13;;;;;;;3.88;2.28;;;;;;;27.37;32.91;97937.94;6155501;28;20257;-87
2022/07/16 09:28:16;;;;;;;2.00;1.80;;;;;;;27.00;35.15;97945.97;6155097;28;20240;-86
2022/07/16 09:31:36;;;;;;;2.97;2.00;;;;;;;27.19;33.37;97938.72;6171684;28;20476;-86
2022/07/16 09:34:38;;;;;;;3.03;1.80;;;;;;;28.36;33.59;97940.34;6155538;28;20302;-86
2022/07/16 09:38:00;;;;;;;2.90;2.13;;;;;;;28.97;29.80;97920.22;6172350;28;20696;-86
2022/07/16 09:41:02;;;;;;;2.75;2.20;;;;;;;28.91;31.74;97927.44;6155799;28;20280;-86
2022/07/16 09:44:12;;;;;;;2.47;2.00;;;;;;;29.06;30.88;97918.81;6147815;28;20575;-85
2022/07/16 09:47:14;;;;;;;6.65;2.05;;;;;;;28.87;30.18;97919.97;6155930;28;20230;-86
2022/07/16 09:50:17;;;;;;;3.58;2.47;;;;;;;28.81;29.57;97921.75;6157103;28;20579;-86
2022/07/16 09:53:22;;;;;;;2.78;2.00;;;;;;;29.10;30.25;97927.34;6141304;28;20311;-86
2022/07/16 09:56:26;;;;;;;2.35;1.88;;;;;;;29.58;30.18;97919.78;6155140;28;20233;-86
2022/07/16 09:59:30;;;;;;;2.65;2.20;;;;;;;29.76;30.56;97913.38;6156676;28;20572;-86
2022/07/16 10:02:52;;;;;;;2.20;2.00;;;;;;;30.44;30.47;97918.03;6156396;28;20226;-85
2022/07/16 10:05:55;;;;;;;2.83;1.98;;;;;;;29.85;28.43;97922.00;6156040;28;20229;-86
2022/07/16 10:08:57;;;;;;;3.63;2.20;;;;;;;29.45;29.95;97920.03;6157343;28;20249;-86
2022/07/16 10:12:08;;;;;;;6.15;2.00;;;;;;;30.13;30.14;97907.63;6139497;28;20353;-85
2022/07/16 10:15:11;;;;;;;4.97;2.20;;;;;;;29.56;29.63;97907.47;6147175;28;20321;-86
2022/07/16 10:18:36;;;;;;;8.48;2.00;;;;;;;30.16;28.09;97910.69;6154518;28;20609;-86
2022/07/16 10:21:39;;;;;;;3.53;1.85;;;;;;;30.68;28.01;97905.13;6138840;28;20745;-86
2022/07/16 10:24:52;;;;;;;6.25;1.80;;;;;;;30.79;27.36;97907.78;6155798;28;20230;-86
2022/07/16 10:27:54;;;;;;;3.78;1.60;;;;;;;30.98;26.59;97899.34;6150478;28;21089;-86
2022/07/16 10:31:36;;;;;;;1.85;1.65;;;;;;;31.12;26.54;97889.81;6139759;28;20241;-86
2022/07/16 10:34:39;;;;;;;2.15;1.70;;;;;;;31.40;26.49;97900.59;6143165;28;20634;-86
2022/07/16 10:37:41;;;;;;;2.65;1.90;;;;;;;31.70;25.62;97896.66;6141150;28;20289;-86
2022/07/16 10:41:07;;;;;;;2.50;1.55;;;;;;;31.07;26.05;97898.69;6141865;28;20737;-86
2022/07/16 10:44:12;;;;;;;3.38;1.88;;;;;;;31.10;28.46;97898.22;6138967;28;20765;-86
2022/07/16 10:47:15;;;;;;;2.65;1.95;;;;;;;31.06;27.52;97896.22;6170947;28;20250;-86
2022/07/16 10:50:21;;;;;;;2.92;1.98;;;;;;;31.35;26.98;97888.75;6154418;28;20781;-86
2022/07/16 10:53:22;;;;;;;2.45;1.73;;;;;;;31.98;27.01;97877.34;6155300;28;20315;-85
2022/07/16 10:56:44;;;;;;;3.22;1.55;;;;;;;32.22;25.13;97892.41;6156972;28;20796;-86
2022/07/16 10:59:48;;;;;;;3.30;1.80;;;;;;;31.80;26.24;97894.06;6171215;28;20260;-86
2022/07/16 11:02:57;;;;;;;2.33;1.90;;;;;;;31.10;24.44;97889.22;6146173;28;20288;-86
2022/07/16 11:06:24;;;;;;;3.10;2.03;;;;;;;31.62;26.19;97886.16;6167232;28;20265;-87
2022/07/16 11:09:29;;;;;;;4.22;2.05;;;;;;;32.02;24.15;97875.78;6156218;28;20242;-87
2022/07/16 11:12:33;;;;;;;2.30;1.90;;;;;;;31.84;24.74;97890.53;6152559;28;20226;-87
2022/07/16 11:15:35;;;;;;;1.92;1.80;;;;;;;31.99;24.69;97875.44;6159002;28;20313;-86
2022/07/16 11:18:38;;;;;;;3.03;1.90;;;;;;;32.43;24.84;97881.69;6160778;28;20241;-87
2022/07/16 11:21:57;;;;;;;2.33;2.13;;;;;;;31.98;25.38;97880.06;6143619;28;20233;-87
2022/07/16 11:25:05;;;;;;;2.70;2.00;;;;;;;32.12;25.40;97881.34;6143880;28;20245;-86
2022/07/16 11:28:07;;;;;;;3.80;2.08;;;;;;;32.35;25.33;97873.94;6160655;28;20745;-87
2022/07/16 11:31:09;;;;;;;2.50;1.73;;;;;;;31.45;25.52;97884.28;6175032;28;20228;-86
2022/07/16 11:34:34;;;;;;;5.47;2.22;;;;;;;31.66;25.85;97879.94;6136382;28;20227;-86
2022/07/16 11:37:56;;;;;;;4.68;1.95;;;;;;;31.94;25.98;97891.78;6133814;28;20781;-86
2022/07/16 11:41:02;;;;;;;3.38;2.20;;;;;;;32.15;24.32;97871.78;6157547;28;20710;-86
2022/07/16 11:44:14;;;;;;;2.60;2.08;;;;;;;32.59;24.82;97892.50;6163496;28;20279;-84
2022/07/16 11:47:17;;;;;;;3.13;2.10;;;;;;;32.33;23.47;97887.06;6158970;28;20233;-87
2022/07/16 11:50:27;;;;;;;2.00;1.83;;;;;;;32.31;24.83;97876.38;6159746;28;20409;-86
2022/07/16 11:53:30;;;;;;;1.98;1.88;;;;;;;32.74;23.55;97883.66;6158160;28;20229;-86
2022/07/16 11:56:36;;;;;;;5.72;2.50;;;;;;;32.27;23.18;97877.97;6158937;28;20736;-87
2022/07/16 11:59:56;;;;;;;2.40;2.20;;;;;;;32.35;24.34;97868.47;6158209;28;20242;-87
2022/07/16 12:02:58;;;;;;;2.50;2.30;;;;;;;32.61;25.40;97886.78;6160324;28;20222;-87
2022/07/16 12:06:02;;;;;;;2.22;1.95;;;;;;;32.97;23.14;97891.50;6158606;28;20638;-86
2022/07/16 12:09:05;;;;;;;2.38;2.08;;;;;;;32.66;23.40;97896.91;6158084;28;20221;-87
2022/07/16 12:12:11;;;;;;;2.50;1.83;;;;;;;32.84;23.06;97891.13;6150164;28;20206;-87
2022/07/16 12:15:15;;;;;;;2.63;1.92;;;;;;;32.96;22.09;97881.63;6168982;28;20728;-87
2022/07/16 12:18:18;;;;;;;2.55;2.05;;;;;;;32.44;22.98;97886.09;6157491;28;20328;-87
2022/07/16 12:21:28;;;;;;;3.20;1.92;;;;;;;32.42;23.49;97883.59;6157725;28;20257;-87
2022/07/16 12:24:30;;;;;;;3.22;1.70;;;;;;;32.33;22.24;97904.28;6157757;28;20261;-86
2022/07/16 12:27:50;;;;;;;2.50;2.30;;;;;;;32.40;22.74;97884.94;6141023;28;20268;-87
2022/07/16 12:30:54;;;;;;;2.72;2.17;;;;;;;32.66;23.49;97897.75;6164740;28;20234;-87
2022/07/16 12:33:58;;;;;;;3.22;1.92;;;;;;;32.68;22.63;97884.66;6173877;28;20316;-87
2022/07/16 12:37:11;;;;;;;2.53;2.00;;;;;;;32.41;23.34;97900.25;6141665;28;20534;-87
2022/07/16 12:40:13;;;;;;;2.10;1.90;;;;;;;32.68;23.68;97883.81;6159466;28;20241;-87
2022/07/16 12:43:15;;;;;;;2.28;1.83;;;;;;;33.30;23.16;97886.84;6149557;28;20607;-87
2022/07/16 12:46:18;;;;;;;3.33;2.00;;;;;;;33.73;22.28;97891.19;6154396;28;20245;-87
2022/07/16 12:49:21;;;;;;;2.95;2.10;;;;;;;33.59;22.02;97887.28;6141428;28;20709;-87
2022/07/16 12:52:24;;;;;;;3.80;2.15;;;;;;;33.33;21.39;97887.16;6156769;28;20236;-87
2022/07/16 12:58:48;;;;;;;3.03;2.20;;;;;;;32.21;22.37;97898.94;6136943;28;20242;-86
2022/07/16 13:02:07;;;;;;;4.55;1.92;;;;;;;32.68;22.64;97886.56;6157715;28;20226;-86
2022/07/16 13:05:09;;;;;;;4.80;1.77;;;;;;;32.77;22.74;97890.50;6157517;28;20237;-86
2022/07/16 13:08:12;;;;;;;2.40;2.20;;;;;;;33.31;23.34;97881.09;6156622;28;20269;-85
2022/07/16 13:11:14;;;;;;;3.42;2.08;;;;;;;33.43;21.80;97885.56;6149583;28;20321;-86
2022/07/16 13:14:16;;;;;;;2.40;2.15;;;;;;;33.35;21.77;97892.31;6147466;28;20242;-86
2022/07/16 13:17:18;;;;;;;3.53;2.00;;;;;;;33.30;22.14;97892.31;6153228;28;20233;-87
2022/07/16 13:20:21;;;;;;;3.28;1.95;;;;;;;33.48;22.89;97880.09;6140789;28;20233;-89
2022/07/16 13:23:24;;;;;;;4.03;2.20;;;;;;;33.98;22.66;97885.00;6156323;28;20313;-86
2022/07/16 13:26:28;;;;;;;2.30;1.70;;;;;;;34.49;22.19;97872.28;6155952;28;20233;-86
2022/07/16 13:29:30;;;;;;;5.72;2.63;;;;;;;34.61;21.85;97883.81;6160266;28;20787;-86
2022/07/16 13:32:32;;;;;;;4.05;2.03;;;;;;;34.48;21.82;97873.38;6178316;28;20319;-85
2022/07/16 13:35:36;;;;;;;2.70;2.10;;;;;;;34.53;21.70;97889.03;6155630;28;20225;-85
2022/07/16 13:38:39;;;;;;;6.13;2.50;;;;;;;33.95;21.47;97885.53;6140725;28;20736;-86
2022/07/16 13:41:41;;;;;;;2.92;2.00;;;;;;;34.31;20.83;97875.56;6155867;28;20784;-86
2022/07/16 13:44:43;;;;;;;3.30;2.00;;;;;;;34.33;20.44;97876.13;6156255;28;20606;-86
2022/07/16 13:47:45;;;;;;;5.80;2.05;;;;;;;34.15;21.27;97880.13;6156031;28;20273;-86
2022/07/16 13:50:48;;;;;;;2.13;1.90;;;;;;;34.12;21.08;97888.09;6155777;28;20240;-86
2022/07/16 13:53:50;;;;;;;3.40;1.92;;;;;;;34.63;20.14;97908.25;6172586;28;20242;-86
2022/07/16 13:56:52;;;;;;;2.15;1.95;;;;;;;34.86;20.10;97899.50;6171741;28;20249;-86
2022/07/16 13:59:54;;;;;;;3.25;1.75;;;;;;;34.26;19.43;97892.78;6139021;28;20320;-86
2022/07/16 14:02:56;;;;;;;1.85;1.70;;;;;;;35.07;19.74;97879.19;6157273;28;20237;-86
2022/07/16 14:06:01;;;;;;;2.97;1.88;;;;;;;36.01;18.91;97885.03;6147856;28;20264;-87
2022/07/16 14:09:04;;;;;;;4.00;1.90;;;;;;;36.75;18.37;97893.13;6143561;28;20238;-87
2022/07/16 14:12:06;;;;;;;3.97;2.10;;;;;;;37.73;17.09;97875.47;6140081;28;20305;-87
2022/07/16 14:15:09;;;;;;;2.80;1.63;;;;;;;38.75;16.34;97897.78;6145775;28;20660;-86
2022/07/16 14:18:12;;;;;;;3.47;1.92;;;;;;;39.84;15.68;97888.16;6139831;28;20230;-86
2022/07/16 14:21:14;;;;;;;2.10;1.92;;;;;;;39.91;14.51;97882.25;6155347;28;20588;-86
2022/07/16 14:24:17;;;;;;;2.55;1.75;;;;;;;41.66;13.55;97880.25;6155042;28;20210;-87
2022/07/16 14:27:19;;;;;;;3.58;1.95;;;;;;;42.25;13.38;97886.31;6154576;28;20653;-86
2022/07/16 14:30:21;;;;;;;2.42;1.90;;;;;;;43.24;12.05;97887.34;6166163;28;20213;-87
2022/07/16 14:33:23;;;;;;;3.83;2.03;;;;;;;43.78;11.67;97891.25;6161069;28;20372;-87
2022/07/16 14:36:25;;;;;;;2.22;2.03;;;;;;;43.90;11.23;97887.78;6138769;28;20653;-86